Time;durP1;ratioP1;P1;durP2;ratioP2;P2;SDS_P1;SDS_P2;PMS_P1;PMS_P2;Temp;Humidity;BMP_temperature;BMP_pressure;BME280_temperature;BME280_humidity;BME280_pressure;Samples;Min_cycle;Max_cycle;Signal;HPM_P1;HPM_P2
2021/12/03 00:00:23;;;;;;;0.30;0.30;;;;;;;23.18;6.38;98676.16;5133683;27;20104;-69
2021/12/03 00:02:48;;;;;;;0.30;0.30;;;;;;;23.19;6.44;98666.84;5135000;27;20414;-69
2021/12/03 00:05:14;;;;;;;0.40;0.40;;;;;;;23.19;6.40;98685.13;5135643;27;20035;-69
2021/12/03 00:07:41;;;;;;;0.35;0.35;;;;;;;23.18;6.24;98680.78;5134447;27;20461;-70
2021/12/03 00:10:08;;;;;;;0.40;0.40;;;;;;;23.17;6.48;98679.19;5134799;27;20053;-70
2021/12/03 00:12:33;;;;;;;0.40;0.40;;;;;;;23.18;6.20;98678.03;5134839;27;20045;-70
2021/12/03 00:14:59;;;;;;;0.30;0.30;;;;;;;23.17;6.13;98693.59;5134709;27;20457;-71
2021/12/03 00:17:24;;;;;;;0.30;0.30;;;;;;;23.19;6.25;98687.84;5134266;27;20480;-70
2021/12/03 00:19:49;;;;;;;0.40;0.40;;;;;;;23.17;6.27;98681.91;5134546;28;20068;-70
2021/12/03 00:22:15;;;;;;;0.32;0.32;;;;;;;23.16;6.27;98692.00;5134734;28;20095;-69
2021/12/03 00:24:40;;;;;;;0.30;0.30;;;;;;;23.18;6.18;98686.22;5134302;27;20027;-69
2021/12/03 00:27:06;;;;;;;0.30;0.30;;;;;;;23.17;6.10;98687.34;5134628;27;20031;-69
2021/12/03 00:29:31;;;;;;;0.30;0.30;;;;;;;23.14;6.18;98680.59;5134606;27;20103;-70
2021/12/03 00:31:57;;;;;;;0.30;0.30;;;;;;;23.15;6.35;98684.94;5137682;27;20019;-70
2021/12/03 00:34:23;;;;;;;0.40;0.40;;;;;;;23.14;6.16;98677.06;5138426;27;20534;-70
2021/12/03 00:36:48;;;;;;;0.45;0.40;;;;;;;23.13;6.14;98670.00;5138724;27;20034;-69
2021/12/03 00:39:14;;;;;;;0.40;0.40;;;;;;;23.12;6.24;98668.41;5138739;27;20031;-69
2021/12/03 00:41:46;;;;;;;0.30;0.30;;;;;;;23.15;6.40;98673.25;5138427;27;20046;-70
2021/12/03 00:44:11;;;;;;;0.40;0.40;;;;;;;23.14;6.24;98668.91;5138703;27;20030;-69
2021/12/03 00:46:37;;;;;;;0.35;0.35;;;;;;;23.13;6.14;98675.44;5138718;27;20414;-69
2021/12/03 00:49:02;;;;;;;0.30;0.30;;;;;;;23.13;6.31;98676.28;5138640;27;20023;-69
2021/12/03 00:51:28;;;;;;;0.40;0.40;;;;;;;23.17;6.15;98668.28;5138591;27;20023;-69
2021/12/03 00:53:53;;;;;;;0.30;0.30;;;;;;;23.15;6.33;98668.59;5138708;27;20042;-69
2021/12/03 00:56:18;;;;;;;0.30;0.30;;;;;;;23.15;6.09;98674.03;5138396;27;20026;-69
2021/12/03 00:58:44;;;;;;;0.30;0.30;;;;;;;23.12;6.18;98662.97;5139153;27;20365;-69
2021/12/03 01:01:09;;;;;;;0.43;0.40;;;;;;;23.12;6.14;98673.88;5138416;27;20341;-70
2021/12/03 01:03:35;;;;;;;0.30;0.30;;;;;;;23.11;6.24;98672.25;5138195;27;20034;-70
2021/12/03 01:06:01;;;;;;;0.55;0.43;;;;;;;23.09;6.23;98674.47;5138332;27;20031;-70
2021/12/03 01:08:27;;;;;;;0.40;0.40;;;;;;;23.09;6.32;98672.56;5137221;27;20055;-70
2021/12/03 01:10:52;;;;;;;0.40;0.40;;;;;;;23.09;6.10;98669.81;5117440;28;20020;-70
2021/12/03 01:13:18;;;;;;;0.40;0.40;;;;;;;23.10;6.29;98667.94;5117341;28;20108;-70
2021/12/03 01:15:43;;;;;;;0.40;0.40;;;;;;;23.08;6.07;98670.13;5117056;28;20492;-70
2021/12/03 01:18:09;;;;;;;0.30;0.30;;;;;;;23.08;6.23;98675.59;5116937;28;20039;-70
2021/12/03 01:20:35;;;;;;;0.30;0.30;;;;;;;23.11;6.08;98677.69;5117046;28;20102;-70
2021/12/03 01:23:00;;;;;;;0.35;0.30;;;;;;;23.09;6.18;98664.38;5117723;28;20024;-70
2021/12/03 01:25:26;;;;;;;0.60;0.35;;;;;;;23.08;6.08;98672.88;5117179;28;20100;-70
2021/12/03 01:27:52;;;;;;;0.40;0.40;;;;;;;23.09;6.08;98663.59;5116871;28;20431;-70
2021/12/03 01:30:18;;;;;;;0.30;0.30;;;;;;;23.07;6.07;98669.34;5117225;28;20030;-68
2021/12/03 01:32:46;;;;;;;0.30;0.30;;;;;;;23.09;6.24;98669.81;5117231;28;20047;-70
2021/12/03 01:35:12;;;;;;;0.30;0.30;;;;;;;23.06;6.17;98671.28;5117106;28;20134;-70
2021/12/03 01:37:37;;;;;;;0.30;0.30;;;;;;;23.06;6.01;98665.81;5117009;28;20024;-70
2021/12/03 01:40:05;;;;;;;0.40;0.40;;;;;;;23.03;6.15;98663.69;5116981;28;20027;-70
2021/12/03 01:42:31;;;;;;;0.40;0.40;;;;;;;23.05;6.14;98669.66;5115221;28;20051;-70
2021/12/03 01:44:56;;;;;;;0.30;0.30;;;;;;;23.02;6.08;98674.91;5116972;28;20484;-70
2021/12/03 01:47:22;;;;;;;0.40;0.40;;;;;;;23.04;5.93;98668.03;5116913;28;20027;-70
2021/12/03 01:49:47;;;;;;;0.30;0.30;;;;;;;23.02;5.99;98670.25;5116486;28;20375;-70
2021/12/03 01:52:12;;;;;;;0.50;0.30;;;;;;;23.04;6.12;98668.03;5116741;28;20027;-70
2021/12/03 01:54:38;;;;;;;0.40;0.40;;;;;;;23.04;6.08;98673.47;5116678;28;20057;-70
2021/12/03 01:57:04;;;;;;;0.30;0.30;;;;;;;23.03;6.02;98666.41;5116308;28;20462;-70
2021/12/03 01:59:29;;;;;;;0.40;0.40;;;;;;;23.03;6.12;98671.06;5116545;28;20030;-70
2021/12/03 02:01:54;;;;;;;0.40;0.40;;;;;;;23.03;6.08;98666.41;5116218;28;20027;-70
2021/12/03 02:04:20;;;;;;;0.30;0.30;;;;;;;23.02;5.96;98670.25;5116467;27;20024;-70
2021/12/03 02:06:45;;;;;;;0.40;0.40;;;;;;;23.03;5.85;98666.41;5116475;28;20027;-70
2021/12/03 02:09:11;;;;;;;0.35;0.35;;;;;;;23.04;6.08;98670.75;5122506;27;20369;-70
2021/12/03 02:11:36;;;;;;;0.25;0.25;;;;;;;23.03;5.92;98677.31;5137089;27;20035;-70
2021/12/03 02:14:02;;;;;;;0.35;0.35;;;;;;;23.02;6.10;98666.72;5136406;27;20107;-70
2021/12/03 02:16:27;;;;;;;0.35;0.35;;;;;;;23.01;5.98;98673.31;5135197;27;20047;-70
2021/12/03 02:18:52;;;;;;;0.43;0.38;;;;;;;23.01;5.86;98670.56;5136663;27;20032;-70
2021/12/03 02:21:18;;;;;;;0.40;0.40;;;;;;;23.02;5.92;98669.44;5136413;27;20106;-69
2021/12/03 02:23:44;;;;;;;0.30;0.30;;;;;;;23.02;5.95;98678.41;5136803;27;20091;-70
2021/12/03 02:26:09;;;;;;;0.30;0.30;;;;;;;23.01;6.00;98679.53;5136338;27;20542;-70
2021/12/03 02:28:39;;;;;;;0.40;0.40;;;;;;;23.00;5.76;98683.38;5136760;27;20027;-69
2021/12/03 02:31:05;;;;;;;0.30;0.30;;;;;;;23.01;5.92;98682.28;5136294;27;20047;-70
2021/12/03 02:33:33;;;;;;;0.50;0.50;;;;;;;23.00;5.84;98686.09;5136504;27;20076;-70
2021/12/03 02:35:59;;;;;;;0.50;0.50;;;;;;;23.01;5.96;98685.00;5136028;27;20469;-70
2021/12/03 02:38:26;;;;;;;0.40;0.40;;;;;;;23.01;5.93;98685.00;5136325;27;20076;-70
2021/12/03 02:40:51;;;;;;;0.40;0.40;;;;;;;23.00;5.90;98686.09;5136446;27;20102;-70
2021/12/03 02:43:17;;;;;;;0.30;0.30;;;;;;;23.01;5.77;98692.38;5136440;27;20110;-69
2021/12/03 02:45:46;;;;;;;0.50;0.50;;;;;;;23.02;5.79;98686.59;5136066;27;20063;-70
2021/12/03 02:48:11;;;;;;;0.30;0.30;;;;;;;23.01;5.80;98697.81;5136150;27;20058;-70
2021/12/03 02:50:37;;;;;;;0.40;0.40;;;;;;;23.00;5.84;98693.47;5136270;27;20047;-70
2021/12/03 02:53:03;;;;;;;0.30;0.30;;;;;;;23.02;5.95;98693.97;5135989;27;20373;-71
2021/12/03 02:55:28;;;;;;;0.32;0.32;;;;;;;22.98;5.77;98684.81;5135211;27;20023;-70
2021/12/03 02:57:54;;;;;;;0.30;0.30;;;;;;;22.96;5.83;98682.41;5136143;27;20023;-70
2021/12/03 03:00:21;;;;;;;0.30;0.30;;;;;;;22.95;5.95;98694.41;5136067;27;20034;-70
2021/12/03 03:02:47;;;;;;;0.40;0.40;;;;;;;22.98;5.89;98693.78;5136131;27;20107;-70
2021/12/03 03:05:13;;;;;;;0.50;0.50;;;;;;;23.00;5.80;98702.44;5136652;27;20445;-70
2021/12/03 03:07:38;;;;;;;0.32;0.30;;;;;;;22.97;5.90;98694.09;5135729;27;20019;-69
2021/12/03 03:10:08;;;;;;;0.30;0.30;;;;;;;22.99;5.71;98702.75;5123442;27;20035;-69
2021/12/03 03:12:33;;;;;;;0.40;0.40;;;;;;;22.98;5.79;98707.41;5114986;28;20036;-69
2021/12/03 03:14:59;;;;;;;0.43;0.43;;;;;;;22.95;5.80;98699.06;5115221;28;20039;-69
2021/12/03 03:17:27;;;;;;;0.40;0.40;;;;;;;22.99;5.66;98702.75;5113413;28;20399;-70
2021/12/03 03:19:54;;;;;;;0.60;0.45;;;;;;;22.96;5.79;98706.13;5114727;28;20437;-70
2021/12/03 03:22:19;;;;;;;0.30;0.30;;;;;;;22.95;5.69;98699.06;5114924;27;20023;-70
2021/12/03 03:24:45;;;;;;;0.30;0.30;;;;;;;22.99;5.77;98709.03;5113722;28;20462;-70
2021/12/03 03:27:10;;;;;;;0.40;0.40;;;;;;;22.95;5.83;98702.56;5115003;28;20377;-69
2021/12/03 03:29:36;;;;;;;0.35;0.35;;;;;;;22.96;5.57;98701.47;5113622;28;20015;-70
2021/12/03 03:32:01;;;;;;;0.45;0.45;;;;;;;22.95;5.54;98710.75;5113655;28;20043;-70
2021/12/03 03:34:27;;;;;;;0.50;0.50;;;;;;;22.95;5.73;98704.50;5114792;28;20032;-70
2021/12/03 03:36:52;;;;;;;0.43;0.43;;;;;;;22.93;5.69;98712.97;5114412;28;20489;-70
2021/12/03 03:39:19;;;;;;;0.40;0.40;;;;;;;22.96;5.53;98717.81;5114285;28;20027;-70
2021/12/03 03:41:45;;;;;;;0.50;0.50;;;;;;;22.95;5.63;98708.03;5114709;28;20030;-70
2021/12/03 03:44:10;;;;;;;0.60;0.60;;;;;;;22.96;5.66;98704.19;5114760;28;20020;-70
2021/12/03 03:46:37;;;;;;;0.40;0.40;;;;;;;22.93;5.82;98704.81;5114601;28;20465;-70
2021/12/03 03:49:02;;;;;;;0.40;0.40;;;;;;;22.93;5.56;98698.56;5114506;28;20020;-70
2021/12/03 03:51:28;;;;;;;0.40;0.40;;;;;;;22.95;5.57;98708.03;5114658;28;20065;-70
2021/12/03 03:53:53;;;;;;;0.73;0.50;;;;;;;22.96;5.71;98703.41;5114445;28;20028;-70
2021/12/03 03:56:19;;;;;;;0.30;0.30;;;;;;;22.95;5.58;98707.22;5114320;28;20027;-69
2021/12/03 03:58:44;;;;;;;0.50;0.50;;;;;;;22.95;5.75;98710.75;5114400;28;20143;-70
2021/12/03 04:01:13;;;;;;;0.40;0.40;;;;;;;22.79;5.94;98706.81;5114767;28;20027;-70
2021/12/03 04:03:38;;;;;;;0.43;0.43;;;;;;;22.82;5.92;98711.63;5115178;28;20043;-70
2021/12/03 04:06:04;;;;;;;0.40;0.40;;;;;;;22.97;5.71;98710.44;5114164;28;20020;-71
2021/12/03 04:08:29;;;;;;;0.47;0.47;;;;;;;23.06;5.98;98711.34;5114621;28;20104;-70
2021/12/03 04:10:56;;;;;;;0.52;0.52;;;;;;;23.05;5.98;98713.25;5133251;27;20026;-70
2021/12/03 04:13:21;;;;;;;0.43;0.43;;;;;;;23.12;5.72;98714.72;5134548;27;20107;-70
2021/12/03 04:15:48;;;;;;;0.40;0.40;;;;;;;23.14;5.92;98716.03;5134509;27;20047;-70
2021/12/03 04:18:14;;;;;;;0.40;0.40;;;;;;;23.19;6.00;98715.88;5133228;27;20443;-70
2021/12/03 04:20:39;;;;;;;0.50;0.50;;;;;;;23.25;5.86;98711.13;5133735;28;20063;-70
2021/12/03 04:23:04;;;;;;;0.50;0.50;;;;;;;23.28;5.74;98710.47;5133211;28;20473;-70
2021/12/03 04:25:30;;;;;;;0.50;0.50;;;;;;;23.29;5.97;98717.56;5134663;28;20027;-71
2021/12/03 04:27:55;;;;;;;0.63;0.50;;;;;;;23.35;5.83;98721.75;5134515;28;20469;-70
2021/12/03 04:30:23;;;;;;;0.52;0.52;;;;;;;23.37;5.95;98714.06;5133791;28;20057;-70
2021/12/03 04:32:48;;;;;;;0.60;0.60;;;;;;;23.40;5.87;98716.19;5133613;28;20023;-70
2021/12/03 04:35:14;;;;;;;0.45;0.45;;;;;;;23.42;5.75;98711.22;5134390;28;20525;-70
2021/12/03 04:37:39;;;;;;;0.50;0.50;;;;;;;23.44;5.95;98714.41;5134537;28;20031;-69
2021/12/03 04:40:06;;;;;;;1.75;0.65;;;;;;;23.49;5.81;98715.38;5134402;27;20027;-70
2021/12/03 04:42:31;;;;;;;0.60;0.60;;;;;;;23.49;5.79;98715.38;5133527;28;20019;-70
2021/12/03 04:44:57;;;;;;;0.47;0.47;;;;;;;23.52;5.93;98715.56;5134909;27;20068;-71
2021/12/03 04:47:22;;;;;;;0.60;0.60;;;;;;;23.55;5.72;98709.50;5134640;28;20024;-69
2021/12/03 04:49:47;;;;;;;0.45;0.45;;;;;;;23.58;5.92;98722.50;5133162;28;20042;-70
2021/12/03 04:52:13;;;;;;;0.40;0.40;;;;;;;23.60;5.95;98722.19;5134298;28;20407;-70
2021/12/03 04:54:38;;;;;;;0.40;0.40;;;;;;;23.60;5.71;98719.47;5134506;28;20027;-70
2021/12/03 04:57:04;;;;;;;2.90;0.40;;;;;;;23.62;5.88;98722.66;5134310;27;20023;-70
2021/12/03 04:59:29;;;;;;;0.40;0.40;;;;;;;23.64;5.90;98728.59;5134454;27;20033;-69
2021/12/03 05:01:57;;;;;;;0.50;0.50;;;;;;;23.67;5.91;98727.97;5115636;28;20034;-70
2021/12/03 05:04:23;;;;;;;0.52;0.52;;;;;;;23.66;5.86;98726.38;5134213;27;20031;-68
2021/12/03 05:09:32;;;;;;;0.52;0.52;;;;;;;23.73;5.91;98732.19;5128362;28;20035;-70
2021/12/03 05:11:58;;;;;;;0.50;0.40;;;;;;;23.73;5.75;98732.19;5113623;28;20031;-70
2021/12/03 05:14:24;;;;;;;0.50;0.50;;;;;;;23.70;5.74;98724.63;5112174;28;20020;-69
2021/12/03 05:16:49;;;;;;;0.77;0.55;;;;;;;23.73;5.88;98729.47;5113334;28;20043;-69
2021/12/03 05:19:18;;;;;;;0.40;0.40;;;;;;;23.74;5.83;98736.50;5116812;28;20034;-69
2021/12/03 05:21:44;;;;;;;0.40;0.40;;;;;;;23.78;5.86;98734.78;5118693;28;20027;-71
2021/12/03 05:24:10;;;;;;;0.40;0.40;;;;;;;23.77;5.87;98733.16;5118118;28;20020;-70
2021/12/03 05:26:36;;;;;;;0.70;0.70;;;;;;;23.83;5.69;98738.50;5117344;27;20473;-71
2021/12/03 05:29:02;;;;;;;0.90;0.70;;;;;;;23.83;5.92;98742.03;5118219;28;20071;-70
2021/12/03 05:31:28;;;;;;;0.82;0.63;;;;;;;23.86;5.78;98746.84;5118845;28;20069;-70
2021/12/03 05:33:53;;;;;;;1.00;0.50;;;;;;;23.85;5.45;98750.69;5117411;28;20443;-70
2021/12/03 05:36:19;;;;;;;1.55;0.65;;;;;;;23.89;5.97;98748.16;5117945;28;20027;-70
2021/12/03 05:38:44;;;;;;;0.73;0.60;;;;;;;23.89;5.93;98750.88;5117916;28;20024;-70
2021/12/03 05:41:10;;;;;;;1.55;0.70;;;;;;;23.92;5.76;98751.06;5116073;28;20081;-70
2021/12/03 05:43:36;;;;;;;0.75;0.70;;;;;;;23.91;5.73;98751.38;5116805;28;20024;-71
2021/12/03 05:46:02;;;;;;;0.60;0.60;;;;;;;23.81;5.99;98763.38;5117301;28;20080;-70
2021/12/03 05:48:27;;;;;;;1.98;0.70;;;;;;;23.94;5.85;98753.44;5116966;27;20032;-69
2021/12/03 05:50:52;;;;;;;2.13;0.68;;;;;;;23.97;6.04;98747.38;5117798;28;20028;-71
2021/12/03 05:53:18;;;;;;;0.75;0.65;;;;;;;23.98;5.89;98752.50;5121260;28;20465;-71
2021/12/03 05:55:43;;;;;;;0.93;0.70;;;;;;;24.00;5.95;98758.44;5117837;28;20040;-70
2021/12/03 05:58:09;;;;;;;2.83;0.55;;;;;;;23.99;6.16;98762.31;5117740;28;20461;-71
2021/12/03 06:00:36;;;;;;;2.83;0.80;;;;;;;24.00;5.85;98763.09;5099183;28;20095;-70
2021/12/03 06:03:03;;;;;;;1.33;0.80;;;;;;;24.03;5.82;98765.22;5117594;28;20034;-69
2021/12/03 06:05:29;;;;;;;4.05;0.85;;;;;;;24.08;5.92;98767.00;5117430;28;20031;-68
2021/12/03 06:07:54;;;;;;;0.68;0.50;;;;;;;24.08;5.71;98764.28;5117777;28;20447;-70
2021/12/03 06:10:20;;;;;;;1.95;0.73;;;;;;;24.09;5.89;98763.91;5129032;27;20045;-71
2021/12/03 06:12:45;;;;;;;3.03;0.90;;;;;;;24.10;6.07;98768.28;5137835;27;20023;-70
2021/12/03 06:15:11;;;;;;;3.10;0.90;;;;;;;24.11;5.87;98764.44;5139486;27;20418;-69
2021/12/03 06:17:36;;;;;;;1.58;0.77;;;;;;;24.12;5.78;98759.78;5137066;27;20520;-70
2021/12/03 06:20:02;;;;;;;1.55;0.70;;;;;;;24.15;5.75;98770.06;5137212;27;20048;-69
2021/12/03 06:22:28;;;;;;;1.23;0.70;;;;;;;24.11;5.96;98772.63;5137680;27;20027;-69
2021/12/03 06:24:54;;;;;;;2.35;0.60;;;;;;;24.17;5.84;98767.81;5136663;27;20476;-69
2021/12/03 06:27:19;;;;;;;0.70;0.60;;;;;;;24.17;5.82;98774.06;5137030;27;20038;-69
2021/12/03 06:29:46;;;;;;;2.70;0.77;;;;;;;24.12;5.89;98771.47;5135967;27;20404;-69
2021/12/03 06:32:11;;;;;;;0.70;0.68;;;;;;;24.18;5.74;98770.22;5138150;27;20368;-68
2021/12/03 06:34:37;;;;;;;1.42;0.70;;;;;;;24.16;5.76;98777.94;5135201;27;20046;-70
2021/12/03 06:37:03;;;;;;;0.68;0.60;;;;;;;24.20;5.73;98783.56;5136418;27;20027;-69
2021/12/03 06:39:28;;;;;;;3.92;0.88;;;;;;;24.22;5.99;98780.50;5137005;27;20469;-69
2021/12/03 06:41:54;;;;;;;0.98;0.60;;;;;;;24.22;6.01;98777.78;5136340;27;20073;-70
2021/12/03 06:44:19;;;;;;;1.88;0.52;;;;;;;24.24;5.81;98781.00;5135706;27;20338;-68
2021/12/03 06:46:45;;;;;;;0.85;0.60;;;;;;;24.23;5.74;98782.91;5135876;27;20043;-69
2021/12/03 06:49:10;;;;;;;0.55;0.55;;;;;;;24.26;5.84;98786.94;5136942;27;20500;-71
2021/12/03 06:51:42;;;;;;;0.60;0.60;;;;;;;24.23;6.23;98782.91;5136139;27;20045;-69
2021/12/03 06:54:09;;;;;;;0.68;0.60;;;;;;;24.24;6.01;98789.19;5136051;27;20023;-71
2021/12/03 06:56:47;;;;;;;3.88;0.95;;;;;;;24.23;5.88;98787.56;5135578;27;20023;-72
2021/12/03 06:59:13;;;;;;;1.70;0.57;;;;;;;24.26;6.02;98787.72;5136233;27;20111;-70
2021/12/03 07:01:39;;;;;;;0.50;0.50;;;;;;;24.28;5.95;98790.16;5136312;27;20051;-71
2021/12/03 07:04:04;;;;;;;0.60;0.50;;;;;;;24.31;5.92;98794.97;5136607;27;20420;-71
2021/12/03 07:06:29;;;;;;;0.68;0.50;;;;;;;24.29;6.19;98792.56;5135332;27;20034;-71
2021/12/03 07:08:55;;;;;;;0.60;0.60;;;;;;;24.32;6.13;98796.59;5135903;27;20023;-70
2021/12/03 07:11:20;;;;;;;0.80;0.70;;;;;;;24.32;6.02;98796.59;5117596;27;20099;-71
2021/12/03 07:13:46;;;;;;;3.00;0.70;;;;;;;24.35;5.82;98795.94;5115084;28;20032;-71
2021/12/03 07:16:11;;;;;;;1.08;0.52;;;;;;;24.36;5.98;98808.47;5114802;28;20135;-71
2021/12/03 07:18:37;;;;;;;1.05;0.70;;;;;;;24.32;5.90;98812.97;5114880;27;20023;-71
2021/12/03 07:21:03;;;;;;;0.73;0.60;;;;;;;24.34;6.13;98806.06;5115284;28;20032;-70
2021/12/03 07:23:29;;;;;;;0.70;0.60;;;;;;;24.39;5.93;98807.84;5114960;28;20024;-71
2021/12/03 07:25:54;;;;;;;1.42;0.47;;;;;;;24.42;6.01;98815.38;5114740;28;20054;-71
2021/12/03 07:28:19;;;;;;;0.60;0.60;;;;;;;24.32;6.11;98821.16;5115075;28;20028;-71
2021/12/03 07:30:45;;;;;;;2.03;0.60;;;;;;;24.40;5.88;98820.38;5116711;28;20031;-71
2021/12/03 07:33:14;;;;;;;0.98;0.70;;;;;;;24.42;6.04;98834.50;5116496;28;20031;-70
2021/12/03 07:35:39;;;;;;;0.73;0.70;;;;;;;24.38;6.02;98839.78;5117236;28;20024;-70
2021/12/03 07:38:04;;;;;;;1.77;0.75;;;;;;;24.41;6.09;98843.81;5116236;28;20028;-71
2021/12/03 07:40:30;;;;;;;0.70;0.70;;;;;;;24.40;6.08;98841.41;5116448;28;20035;-71
2021/12/03 07:42:55;;;;;;;0.73;0.57;;;;;;;24.43;5.80;98852.50;5116423;28;20031;-71
2021/12/03 07:45:21;;;;;;;2.03;1.00;;;;;;;24.43;6.07;98841.56;5115113;28;20023;-71
2021/12/03 07:47:46;;;;;;;3.58;1.88;;;;;;;24.44;6.11;98843.19;5115028;28;20039;-70
2021/12/03 07:50:13;;;;;;;1.98;1.20;;;;;;;24.45;6.07;98847.53;5114678;28;20084;-69
2021/12/03 07:52:39;;;;;;;3.25;1.10;;;;;;;24.48;5.82;98848.81;5114516;28;20102;-68
2021/12/03 07:55:05;;;;;;;1.20;0.98;;;;;;;24.50;5.93;98852.03;5114639;28;20373;-67
2021/12/03 07:57:30;;;;;;;2.10;1.00;;;;;;;24.51;5.97;98851.72;5115157;28;20027;-67
2021/12/03 07:59:56;;;;;;;1.77;0.90;;;;;;;24.51;5.74;98854.44;5113682;28;20136;-68
2021/12/03 08:02:23;;;;;;;1.92;0.85;;;;;;;24.39;5.99;98851.53;5114221;28;20531;-68
2021/12/03 08:04:48;;;;;;;1.77;1.00;;;;;;;24.44;5.88;98845.94;5114473;28;20031;-69
2021/12/03 08:07:13;;;;;;;1.48;1.02;;;;;;;24.48;5.80;98855.09;5114469;28;20028;-69
2021/12/03 08:09:39;;;;;;;1.15;0.80;;;;;;;24.48;5.92;98849.63;5116139;27;20485;-69
2021/12/03 08:12:06;;;;;;;1.67;0.70;;;;;;;24.51;5.94;98849.00;5134949;27;20027;-70
2021/12/03 08:14:31;;;;;;;2.50;0.80;;;;;;;24.51;5.82;98849.00;5135646;27;20023;-69
2021/12/03 08:16:56;;;;;;;1.88;0.63;;;;;;;24.52;6.24;98856.03;5134808;27;20380;-67
2021/12/03 08:19:22;;;;;;;0.73;0.70;;;;;;;24.56;6.11;98845.34;5135115;27;20015;-69
2021/12/03 08:21:47;;;;;;;1.25;0.65;;;;;;;24.57;6.37;98846.16;5135322;27;20020;-68
2021/12/03 08:24:13;;;;;;;1.70;0.60;;;;;;;24.59;6.22;98868.47;5135273;28;20463;-68
2021/12/03 08:26:38;;;;;;;1.80;0.63;;;;;;;24.61;6.01;98855.28;5135415;28;20023;-68
2021/12/03 08:29:04;;;;;;;0.80;0.60;;;;;;;24.61;6.16;98853.38;5135600;27;20052;-71
2021/12/03 08:31:30;;;;;;;0.82;0.60;;;;;;;24.61;6.01;98863.50;5135485;27;20106;-68
2021/12/03 08:33:55;;;;;;;0.65;0.65;;;;;;;24.57;5.87;98857.84;5135311;28;20458;-68
2021/12/03 08:36:21;;;;;;;1.35;0.70;;;;;;;24.63;6.09;98853.88;5135644;28;20030;-67
2021/12/03 08:38:46;;;;;;;1.27;0.85;;;;;;;24.65;6.19;98853.56;5135636;28;20027;-68
2021/12/03 08:41:17;;;;;;;1.60;0.75;;;;;;;24.66;6.10;98855.94;5135441;27;20080;-68
2021/12/03 08:43:45;;;;;;;0.98;0.70;;;;;;;24.68;6.34;98853.72;5133406;28;20098;-70
2021/12/03 08:46:18;;;;;;;3.05;0.90;;;;;;;24.65;6.03;98845.38;5133428;28;20045;-68
2021/12/03 08:48:47;;;;;;;1.73;0.77;;;;;;;24.66;6.33;98841.50;5134532;27;20027;-68
2021/12/03 08:56:29;;;;;;;4.32;0.60;;;;;;;24.66;6.45;98849.69;5138792;27;20526;-67
2021/12/03 08:58:55;;;;;;;0.80;0.60;;;;;;;24.67;6.23;98845.84;5139100;27;20019;-68
2021/12/03 09:01:20;;;;;;;1.00;0.57;;;;;;;24.66;6.23;98839.56;5138752;27;20034;-69
2021/12/03 09:03:46;;;;;;;1.08;0.90;;;;;;;24.66;6.41;98842.28;5138139;27;20399;-67
2021/12/03 09:06:11;;;;;;;0.63;0.63;;;;;;;24.67;6.61;98841.16;5140272;27;20027;-68
2021/12/03 09:08:36;;;;;;;0.90;0.60;;;;;;;24.69;6.19;98838.91;5139620;27;20454;-67
2021/12/03 09:11:02;;;;;;;2.17;0.57;;;;;;;24.66;6.33;98839.56;5124911;27;20031;-67
2021/12/03 09:13:28;;;;;;;0.55;0.50;;;;;;;24.64;6.12;98844.53;5120964;28;20030;-68
2021/12/03 09:15:59;;;;;;;0.80;0.55;;;;;;;24.65;6.10;98842.63;5117665;28;20028;-67
2021/12/03 09:18:31;;;;;;;1.38;0.80;;;;;;;24.64;6.44;98835.53;5119364;28;20035;-68
2021/12/03 09:21:07;;;;;;;1.00;0.80;;;;;;;24.65;6.25;98843.44;5119432;28;20051;-67
2021/12/03 09:26:10;;;;;;;0.70;0.70;;;;;;;24.64;6.13;98839.06;5117923;28;20047;-70
2021/12/03 09:28:36;;;;;;;0.60;0.60;;;;;;;24.67;6.18;98832.19;5119379;28;20028;-69
2021/12/03 09:31:02;;;;;;;0.75;0.60;;;;;;;24.68;6.24;98836.50;5120722;28;20075;-69
2021/12/03 09:33:29;;;;;;;0.60;0.60;;;;;;;24.65;6.23;98837.97;5118840;28;20448;-68
2021/12/03 09:35:58;;;;;;;1.55;0.63;;;;;;;24.66;6.45;98833.28;5125461;28;20154;-67
2021/12/03 09:38:25;;;;;;;0.47;0.47;;;;;;;24.68;6.37;98836.50;5122315;28;20103;-67
2021/12/03 09:40:51;;;;;;;0.50;0.50;;;;;;;24.67;6.24;98835.72;5119096;28;20032;-67
2021/12/03 09:43:16;;;;;;;0.93;0.70;;;;;;;24.69;6.38;98833.47;5119783;28;20410;-68
2021/12/03 09:45:52;;;;;;;0.60;0.60;;;;;;;24.68;6.38;98841.97;5122111;28;20039;-68
2021/12/03 09:48:30;;;;;;;0.55;0.55;;;;;;;24.71;6.66;98835.88;5122064;28;20031;-67
2021/12/03 09:50:56;;;;;;;0.52;0.47;;;;;;;24.69;6.36;98843.59;5123446;28;20023;-69
2021/12/03 09:55:49;;;;;;;0.75;0.70;;;;;;;24.69;6.48;98838.13;5128247;28;20047;-68
2021/12/03 10:01:07;;;;;;;0.70;0.52;;;;;;;24.72;6.71;98842.94;5119861;28;20047;-70
2021/12/03 10:03:46;;;;;;;0.73;0.60;;;;;;;24.63;6.43;98845.69;5116487;28;20489;-70
2021/12/03 10:11:57;;;;;;;1.27;0.60;;;;;;;24.72;6.47;98842.94;5133687;27;20042;-71
2021/12/03 10:14:51;;;;;;;1.15;0.77;;;;;;;24.73;6.62;98833.63;5136110;27;20088;-71
2021/12/03 10:19:51;;;;;;;1.92;0.80;;;;;;;24.73;6.66;98836.34;5137538;27;20039;-71
2021/12/03 10:22:36;;;;;;;1.83;0.70;;;;;;;24.75;6.69;98836.84;5137086;27;20027;-71
2021/12/03 10:54:19;;;;;;;2.25;1.15;;;;;;;24.80;6.96;98842.16;5136314;27;20026;-71
2021/12/03 13:00:11;;;;;;;1.65;1.00;;;;;;;24.87;7.32;98822.53;5093166;28;20096;-69
2021/12/03 13:18:47;;;;;;;3.25;1.70;;;;;;;24.58;7.94;98839.53;5133613;28;20500;-69
2021/12/03 14:14:44;;;;;;;0.80;0.80;;;;;;;24.61;7.45;98858.03;5115656;28;20047;-70
2021/12/03 14:38:46;;;;;;;1.05;0.95;;;;;;;24.65;7.61;98867.22;5115797;27;20098;-70
2021/12/03 14:41:13;;;;;;;0.80;0.80;;;;;;;24.66;7.61;98874.25;5115112;28;20046;-70
2021/12/03 14:44:02;;;;;;;1.02;1.00;;;;;;;24.68;7.37;98870.09;5115828;28;20455;-71
2021/12/03 14:46:58;;;;;;;1.10;1.00;;;;;;;24.66;7.75;98864.13;5115868;28;20370;-70
2021/12/03 14:57:15;;;;;;;0.80;0.80;;;;;;;24.67;7.48;98875.88;5115336;28;20070;-70
2021/12/03 14:59:52;;;;;;;0.90;0.90;;;;;;;24.67;7.71;98878.63;5115253;28;20036;-69
2021/12/03 15:05:31;;;;;;;1.10;1.00;;;;;;;24.62;7.66;98871.38;5114118;28;20032;-68
2021/12/03 15:07:51;;;;;;;0.95;0.93;;;;;;;24.66;7.70;98877.00;5112705;28;20051;-68
2021/12/03 15:10:29;;;;;;;1.25;1.10;;;;;;;24.61;7.59;98879.88;5116577;27;20027;-68
2021/12/03 15:13:27;;;;;;;0.80;0.80;;;;;;;24.63;7.54;98889.38;5135494;27;20518;-69
2021/12/03 15:24:00;;;;;;;1.10;1.00;;;;;;;24.50;7.67;98891.06;5094741;28;20020;-69
2021/12/03 15:34:03;;;;;;;1.10;1.00;;;;;;;24.38;7.86;98899.06;5094248;28;20355;-69
2021/12/03 15:36:52;;;;;;;1.10;1.00;;;;;;;24.36;7.88;98895.84;5094882;28;20029;-71
2021/12/03 16:08:42;;;;;;;1.10;1.00;;;;;;;24.09;8.46;98897.66;5051780;28;20517;-69
2021/12/03 16:51:50;;;;;;;;;;;;;;;24.10;8.94;98923.81;4992456;28;20065;-69
2021/12/03 16:54:21;;;;;;;0.95;0.77;;;;;;;23.89;8.74;98915.38;5037591;28;19909;-70
2021/12/03 16:56:50;;;;;;;0.73;0.73;;;;;;;23.85;8.94;98921.75;5053212;28;20036;-71
2021/12/03 16:59:16;;;;;;;0.75;0.70;;;;;;;23.79;9.07;98921.84;5053220;28;20029;-71
2021/12/03 17:25:12;;;;;;;1.00;0.63;;;;;;;23.72;9.32;98929.66;5138330;27;20027;-70
2021/12/03 17:30:44;;;;;;;0.90;0.63;;;;;;;23.69;9.40;98932.22;5138015;27;20065;-70
2021/12/03 17:49:45;;;;;;;1.02;0.57;;;;;;;23.62;9.42;98949.81;5137518;27;20453;-69
2021/12/03 17:55:13;;;;;;;0.50;0.50;;;;;;;23.62;9.60;98954.47;5137499;27;20031;-69
2021/12/03 18:00:20;;;;;;;0.70;0.70;;;;;;;23.70;9.66;98959.19;5137040;27;19964;-70
2021/12/03 18:02:49;;;;;;;0.80;0.70;;;;;;;23.67;9.47;98967.19;5137394;27;20035;-71
2021/12/03 18:43:54;;;;;;;0.50;0.50;;;;;;;23.54;9.96;99005.09;5053130;28;20056;-69
2021/12/03 18:46:49;;;;;;;0.35;0.35;;;;;;;23.53;9.79;99010.84;5053040;28;20036;-71
2021/12/03 18:51:46;;;;;;;0.50;0.50;;;;;;;23.50;10.16;99011.47;5052993;28;20514;-70
2021/12/03 18:54:35;;;;;;;0.60;0.60;;;;;;;23.51;9.87;99008.44;5066057;28;20111;-70
2021/12/03 18:57:19;;;;;;;0.45;0.45;;;;;;;23.50;10.01;99011.47;5095097;28;20031;-70
2021/12/03 18:59:54;;;;;;;0.40;0.40;;;;;;;23.51;10.07;99007.59;5095285;28;20040;-71
2021/12/03 19:02:21;;;;;;;0.32;0.32;;;;;;;23.48;10.06;99009.03;5095131;28;20028;-70
2021/12/03 19:04:55;;;;;;;0.43;0.43;;;;;;;23.45;9.99;99015.09;5094909;28;20467;-70
2021/12/03 19:07:27;;;;;;;;;;;;;;;23.73;10.07;99020.47;5095632;28;20063;-68
2021/12/03 19:09:55;;;;;;;0.63;0.60;;;;;;;23.55;10.12;99014.06;5094921;28;20354;-70
2021/12/03 19:12:26;;;;;;;0.50;0.50;;;;;;;23.52;10.06;99022.88;5122539;27;20106;-70
2021/12/03 19:14:57;;;;;;;0.40;0.40;;;;;;;23.49;10.26;99018.03;5135732;27;20092;-70